createdAt,value
2022-10-10T00:00:10.971Z,78.10
2022-10-10T00:03:53.594Z,78.40
2022-10-10T00:07:35.467Z,78.80
2022-10-10T00:11:20.852Z,78.70
2022-10-10T00:15:02.842Z,78.90
2022-10-10T00:18:45.092Z,79.20
2022-10-10T00:22:27.160Z,79.80
2022-10-10T00:26:10.134Z,79.10
2022-10-10T00:29:53.075Z,79.60
2022-10-10T00:33:35.590Z,80.50
2022-10-10T00:37:17.406Z,80.60
2022-10-10T00:40:59.500Z,81.20
2022-10-10T00:44:43.260Z,81.60
2022-10-10T00:48:33.772Z,81.90
2022-10-10T00:52:15.618Z,82.30
2022-10-10T00:55:58.232Z,82.60
2022-10-10T00:59:42.786Z,82.70
2022-10-10T01:03:24.652Z,82.80
2022-10-10T01:07:28.291Z,83.00
2022-10-10T01:11:37.023Z,82.60
2022-10-10T01:15:52.692Z,82.00
2022-10-10T01:20:03.064Z,82.30
2022-10-10T01:24:23.617Z,82.20
2022-10-10T01:28:22.671Z,82.20
2022-10-10T01:32:11.495Z,83.00
2022-10-10T01:36:07.214Z,83.30
2022-10-10T01:40:00.189Z,83.40
2022-10-10T01:43:42.675Z,83.40
2022-10-10T01:47:24.960Z,84.00
2022-10-10T01:51:18.855Z,84.00
2022-10-10T01:55:20.309Z,84.20
2022-10-10T01:59:39.805Z,84.10
2022-10-10T02:03:29.464Z,83.70
2022-10-10T02:07:55.980Z,84.80
2022-10-10T02:11:39.735Z,84.00
2022-10-10T02:15:24.431Z,85.00
2022-10-10T02:19:10.642Z,85.20
2022-10-10T02:22:53.881Z,85.50
2022-10-10T02:26:38.469Z,85.40
2022-10-10T02:30:20.498Z,85.60
2022-10-10T02:34:11.783Z,85.60
2022-10-10T02:37:54.803Z,86.20
2022-10-10T02:41:37.610Z,86.00
2022-10-10T02:45:21.085Z,86.30
2022-10-10T02:49:02.919Z,86.70
2022-10-10T02:52:44.759Z,87.20
2022-10-10T02:56:26.710Z,87.90
2022-10-10T03:00:09.180Z,88.40
2022-10-10T03:03:51.057Z,89.20
2022-10-10T03:07:32.860Z,89.70
2022-10-10T03:11:14.745Z,90.00
2022-10-10T03:14:56.702Z,90.50
2022-10-10T03:18:38.718Z,90.70
2022-10-10T03:22:20.524Z,91.00
2022-10-10T03:26:03.572Z,91.10
2022-10-10T03:29:45.470Z,91.20
2022-10-10T03:33:27.280Z,91.50
2022-10-10T03:37:09.518Z,91.40
2022-10-10T03:40:51.355Z,91.50
2022-10-10T03:44:33.218Z,91.60
2022-10-10T03:48:15.716Z,91.50
2022-10-10T03:51:57.609Z,91.40
2022-10-10T03:55:41.198Z,91.50
2022-10-10T03:59:23.102Z,91.50
2022-10-10T04:03:06.553Z,91.50
2022-10-10T04:06:48.432Z,91.50
2022-10-10T04:10:30.728Z,91.50
2022-10-10T04:14:12.526Z,91.50
2022-10-10T04:17:54.327Z,91.50
2022-10-10T04:21:36.647Z,91.60
2022-10-10T04:25:18.623Z,91.70
2022-10-10T04:29:00.860Z,91.80
2022-10-10T04:32:42.720Z,91.70
2022-10-10T04:36:24.597Z,91.80
2022-10-10T04:40:06.951Z,91.70
2022-10-10T04:43:48.779Z,91.60
2022-10-10T04:47:30.672Z,91.70
2022-10-10T04:51:12.514Z,91.70
2022-10-10T04:54:54.331Z,91.70
2022-10-10T04:58:36.420Z,91.80
2022-10-10T05:02:18.230Z,91.90
2022-10-10T05:06:00.091Z,92.10
2022-10-10T05:09:41.942Z,91.90
2022-10-10T05:13:23.745Z,92.10
2022-10-10T05:17:05.575Z,92.50
2022-10-10T05:20:47.892Z,92.90
2022-10-10T05:24:29.703Z,92.40
2022-10-10T05:28:12.239Z,92.10
2022-10-10T05:31:54.118Z,91.80
2022-10-10T05:35:36.062Z,91.80
2022-10-10T05:39:17.892Z,91.60
2022-10-10T05:42:59.683Z,90.80
2022-10-10T05:46:41.571Z,90.00
2022-10-10T05:50:46.604Z,89.30
2022-10-10T05:54:28.448Z,88.90
2022-10-10T05:58:13.477Z,88.20
2022-10-10T06:01:55.798Z,86.80
2022-10-10T06:05:37.596Z,86.10
2022-10-10T06:09:19.435Z,86.00
2022-10-10T06:13:01.319Z,85.80
2022-10-10T06:16:45.239Z,85.50
2022-10-10T06:20:27.085Z,85.30
2022-10-10T06:24:10.767Z,85.00
2022-10-10T06:27:52.586Z,85.10
2022-10-10T06:31:39.326Z,85.40
2022-10-10T06:35:21.239Z,85.30
2022-10-10T06:39:03.469Z,85.90
2022-10-10T06:42:45.401Z,85.80
2022-10-10T06:46:27.274Z,85.80
2022-10-10T06:50:09.273Z,85.80
2022-10-10T06:53:51.092Z,85.40
2022-10-10T06:57:32.998Z,86.20
2022-10-10T07:01:17.085Z,86.10
2022-10-10T07:04:58.903Z,85.80
2022-10-10T07:08:41.461Z,85.90
2022-10-10T07:12:23.265Z,85.80
2022-10-10T07:16:06.017Z,85.50
2022-10-10T07:19:47.831Z,85.90
2022-10-10T07:23:31.670Z,85.70
2022-10-10T07:27:13.486Z,85.30
2022-10-10T07:31:01.007Z,84.90
2022-10-10T07:34:42.915Z,84.70
2022-10-10T07:38:24.804Z,84.70
2022-10-10T07:42:06.645Z,85.00
2022-10-10T07:45:48.625Z,85.00
2022-10-10T07:49:30.503Z,85.10
2022-10-10T07:53:12.679Z,85.10
2022-10-10T07:56:54.932Z,85.40
2022-10-10T08:00:37.595Z,85.30
2022-10-10T08:04:19.558Z,85.60
2022-10-10T08:08:01.888Z,85.50
2022-10-10T08:11:43.937Z,85.40
2022-10-10T08:15:27.844Z,85.40
2022-10-10T08:23:00.032Z,85.50
2022-10-10T08:26:41.906Z,85.90
2022-10-10T08:30:23.721Z,84.80
2022-10-10T08:34:05.525Z,82.00
2022-10-10T08:37:47.597Z,80.00
2022-10-10T08:41:55.339Z,78.10
2022-10-10T08:45:39.116Z,78.50
2022-10-10T08:49:35.323Z,76.70
2022-10-10T08:53:45.354Z,76.10
2022-10-10T08:57:30.939Z,76.10
2022-10-10T09:01:23.741Z,73.70
2022-10-10T09:05:16.558Z,72.00
2022-10-10T09:09:01.394Z,72.70
2022-10-10T09:13:00.807Z,71.90
2022-10-10T09:17:04.229Z,71.20
2022-10-10T09:20:58.262Z,69.80
2022-10-10T09:24:55.733Z,68.70
2022-10-10T09:28:50.119Z,67.80
2022-10-10T09:32:41.922Z,67.70
2022-10-10T09:36:34.145Z,68.00
2022-10-10T09:40:34.496Z,66.40
2022-10-10T09:44:18.916Z,65.50
2022-10-10T09:48:00.793Z,63.50
2022-10-10T09:51:43.526Z,62.80
2022-10-10T09:55:34.884Z,59.40
2022-10-10T09:59:37.671Z,59.10
2022-10-10T10:03:21.807Z,58.40
2022-10-10T10:07:07.327Z,51.00
2022-10-10T10:10:49.333Z,49.50
2022-10-10T10:14:36.555Z,47.20
2022-10-10T10:18:20.796Z,46.40
2022-10-10T10:22:02.984Z,46.10
2022-10-10T10:25:44.904Z,42.80
2022-10-10T10:29:30.421Z,42.40
2022-10-10T10:33:24.150Z,43.80
2022-10-10T10:37:23.403Z,40.70
2022-10-10T10:41:15.831Z,41.30
2022-10-10T10:45:08.848Z,40.00
2022-10-10T10:49:02.464Z,42.70
2022-10-10T10:52:47.102Z,41.40
2022-10-10T10:56:46.938Z,37.50
2022-10-10T11:01:23.457Z,39.60
2022-10-10T11:05:23.583Z,35.70
2022-10-10T11:09:44.906Z,35.90
2022-10-10T11:13:27.807Z,38.50
2022-10-10T11:17:43.850Z,33.40
2022-10-10T11:21:29.506Z,39.80
2022-10-10T11:25:42.638Z,32.60
2022-10-10T11:29:36.080Z,38.40
2022-10-10T11:33:29.780Z,35.00
2022-10-10T11:37:18.036Z,35.00
2022-10-10T11:41:09.311Z,32.10
2022-10-10T11:45:06.969Z,33.30
2022-10-10T11:48:55.794Z,32.40
2022-10-10T11:52:46.622Z,31.10
2022-10-10T11:56:36.750Z,30.50
2022-10-10T12:00:18.916Z,31.70
2022-10-10T12:04:00.768Z,30.50
2022-10-10T12:07:59.954Z,30.00
2022-10-10T12:11:53.909Z,30.60
2022-10-10T12:15:42.628Z,32.80
2022-10-10T12:19:28.313Z,30.00
2022-10-10T12:23:19.319Z,30.10
2022-10-10T12:27:01.075Z,28.80
2022-10-10T12:31:03.501Z,28.70
2022-10-10T12:34:48.531Z,32.20
2022-10-10T12:38:30.386Z,28.90
2022-10-10T12:42:31.895Z,28.50
2022-10-10T12:46:30.034Z,31.40
2022-10-10T12:50:22.853Z,29.50
2022-10-10T12:54:07.066Z,30.00
2022-10-10T12:57:50.638Z,27.90
2022-10-10T13:01:37.114Z,27.60
2022-10-10T13:05:35.177Z,28.00
2022-10-10T13:09:35.181Z,27.90
2022-10-10T13:13:20.781Z,29.00
2022-10-10T13:17:02.595Z,27.70
2022-10-10T13:20:44.479Z,27.80
2022-10-10T13:24:31.483Z,27.80
2022-10-10T13:28:18.969Z,27.60
2022-10-10T13:32:08.217Z,27.50
2022-10-10T13:35:51.046Z,28.30
2022-10-10T13:39:36.517Z,27.50
2022-10-10T13:43:19.486Z,27.60
2022-10-10T13:47:39.674Z,28.20
2022-10-10T13:51:41.916Z,30.30
2022-10-10T13:55:27.425Z,29.80
2022-10-10T13:59:13.106Z,27.00
2022-10-10T14:02:54.995Z,27.40
2022-10-10T14:06:37.074Z,27.90
2022-10-10T14:10:23.576Z,28.00
2022-10-10T14:14:14.616Z,28.00
2022-10-10T14:17:56.424Z,28.50
2022-10-10T14:21:38.199Z,28.20
2022-10-10T14:25:20.027Z,27.80
2022-10-10T14:29:01.993Z,27.20
2022-10-10T14:32:43.838Z,27.50
2022-10-10T14:36:25.633Z,27.60
2022-10-10T14:40:30.552Z,27.70
2022-10-10T14:44:12.968Z,29.60
2022-10-10T14:47:54.864Z,28.20
2022-10-10T14:51:38.204Z,27.90
2022-10-10T14:55:20.005Z,28.10
2022-10-10T14:59:01.898Z,28.40
2022-10-10T15:02:45.845Z,28.50
2022-10-10T15:06:27.910Z,28.60
2022-10-10T15:10:32.666Z,28.70
2022-10-10T15:14:13.514Z,29.10
2022-10-10T15:17:58.024Z,29.40
2022-10-10T15:21:39.841Z,29.40
2022-10-10T15:25:21.670Z,31.00
2022-10-10T15:29:03.534Z,30.60
2022-10-10T15:32:45.574Z,30.90
2022-10-10T15:36:27.484Z,31.40
2022-10-10T15:40:10.171Z,31.40
2022-10-10T15:43:54.801Z,31.10
2022-10-10T15:47:44.183Z,30.80
2022-10-10T15:51:29.064Z,31.70
2022-10-10T15:55:11.186Z,32.60
2022-10-10T15:58:57.789Z,33.00
2022-10-10T16:02:39.632Z,33.10
2022-10-10T16:06:25.227Z,33.80
2022-10-10T16:10:07.444Z,34.70
2022-10-10T16:13:55.055Z,34.90
2022-10-10T16:17:37.042Z,35.90
2022-10-10T16:21:21.755Z,36.30
2022-10-10T16:25:21.850Z,37.20
2022-10-10T16:29:06.543Z,37.60
2022-10-10T16:32:49.378Z,38.10
2022-10-10T16:36:33.746Z,39.00
2022-10-10T16:40:15.656Z,39.20
2022-10-10T16:43:57.803Z,39.40
2022-10-10T16:47:39.630Z,40.00
2022-10-10T16:51:25.784Z,39.60
2022-10-10T16:55:08.385Z,39.80
2022-10-10T16:58:50.915Z,40.10
2022-10-10T17:02:32.755Z,40.60
2022-10-10T17:06:19.079Z,41.00
2022-10-10T17:10:00.880Z,41.30
2022-10-10T17:13:43.203Z,42.00
2022-10-10T17:17:25.070Z,42.60
2022-10-10T17:21:16.154Z,42.90
2022-10-10T17:24:57.994Z,43.20
2022-10-10T17:28:40.030Z,43.70
2022-10-10T17:32:23.137Z,44.00
2022-10-10T17:36:10.443Z,44.90
2022-10-10T17:39:52.271Z,45.60
2022-10-10T17:43:36.022Z,46.00
2022-10-10T17:47:17.858Z,46.40
2022-10-10T17:51:00.185Z,47.10
2022-10-10T17:54:41.988Z,47.60
2022-10-10T17:58:23.831Z,48.40
2022-10-10T18:02:05.758Z,48.80
2022-10-10T18:05:47.627Z,49.80
2022-10-10T18:09:29.402Z,50.10
2022-10-10T18:13:11.222Z,50.30
2022-10-10T18:16:53.071Z,50.20
2022-10-10T18:20:38.302Z,50.40
2022-10-10T18:24:20.179Z,51.30
2022-10-10T18:28:02.029Z,52.00
2022-10-10T18:31:44.757Z,51.70
2022-10-10T18:35:26.753Z,51.90
2022-10-10T18:39:12.799Z,52.30
2022-10-10T18:42:54.639Z,52.80
2022-10-10T18:46:37.124Z,52.90
2022-10-10T18:50:20.356Z,52.90
2022-10-10T18:54:04.791Z,53.30
2022-10-10T18:57:46.644Z,53.40
2022-10-10T19:01:30.789Z,54.10
2022-10-10T19:05:12.619Z,53.90
2022-10-10T19:08:56.177Z,53.90
2022-10-10T19:12:38.122Z,54.40
2022-10-10T19:16:21.136Z,54.30
2022-10-10T19:20:03.786Z,54.80
2022-10-10T19:23:45.694Z,55.00
2022-10-10T19:27:27.492Z,55.10
2022-10-10T19:31:14.830Z,54.90
2022-10-10T19:34:56.627Z,56.00
2022-10-10T19:38:40.456Z,56.50
2022-10-10T19:42:22.343Z,57.00
2022-10-10T19:46:06.688Z,57.40
2022-10-10T19:49:49.147Z,57.90
2022-10-10T19:53:33.399Z,58.00
2022-10-10T19:57:15.529Z,58.20
2022-10-10T20:00:57.438Z,58.40
2022-10-10T20:04:39.281Z,58.70
2022-10-10T20:08:21.180Z,59.00
2022-10-10T20:12:02.987Z,58.80
2022-10-10T20:15:46.975Z,58.90
2022-10-10T20:19:28.861Z,59.70
2022-10-10T20:23:12.912Z,59.80
2022-10-10T20:26:54.899Z,60.30
2022-10-10T20:30:41.231Z,60.70
2022-10-10T20:34:23.114Z,60.90
2022-10-10T20:38:05.216Z,61.50
2022-10-10T20:41:47.019Z,61.10
2022-10-10T20:45:28.808Z,61.20
2022-10-10T20:49:14.397Z,61.30
2022-10-10T20:52:56.226Z,61.20
2022-10-10T20:56:38.213Z,61.60
2022-10-10T21:00:20.665Z,61.70
2022-10-10T21:04:02.678Z,61.70
2022-10-10T21:07:45.958Z,61.90
2022-10-10T21:11:27.781Z,61.90
2022-10-10T21:15:10.039Z,61.70
2022-10-10T21:18:57.382Z,61.90
2022-10-10T21:22:40.920Z,62.20
2022-10-10T21:26:24.071Z,62.30
2022-10-10T21:30:06.580Z,62.60
2022-10-10T21:33:48.451Z,62.40
2022-10-10T21:37:30.596Z,62.50
2022-10-10T21:41:22.064Z,62.80
2022-10-10T21:45:04.404Z,62.70
2022-10-10T21:48:46.342Z,63.00
2022-10-10T21:52:28.255Z,63.20
2022-10-10T21:56:11.334Z,63.20
2022-10-10T21:59:53.287Z,63.90
2022-10-10T22:03:35.170Z,63.60
2022-10-10T22:07:17.123Z,63.40
2022-10-10T22:11:07.369Z,64.90
2022-10-10T22:14:49.295Z,64.40
2022-10-10T22:18:31.594Z,64.50
2022-10-10T22:22:13.809Z,64.60
2022-10-10T22:25:55.598Z,64.70
2022-10-10T22:29:37.418Z,64.60
2022-10-10T22:33:19.207Z,65.80
2022-10-10T22:37:01.037Z,65.60
2022-10-10T22:40:42.856Z,65.80
2022-10-10T22:44:24.695Z,66.10
2022-10-10T22:48:06.676Z,66.30
2022-10-10T22:51:48.472Z,66.30
2022-10-10T22:55:30.374Z,66.40
2022-10-10T22:59:12.220Z,66.10
2022-10-10T23:02:58.048Z,66.40
2022-10-10T23:06:40.354Z,66.50
2022-10-10T23:10:22.120Z,66.60
2022-10-10T23:14:04.275Z,66.90
2022-10-10T23:17:46.122Z,66.90
2022-10-10T23:21:28.067Z,67.00
2022-10-10T23:25:09.925Z,67.40
2022-10-10T23:28:51.971Z,67.50
2022-10-10T23:32:33.864Z,67.70
2022-10-10T23:36:16.191Z,68.30
2022-10-10T23:39:58.190Z,68.00
2022-10-10T23:43:40.410Z,68.20
2022-10-10T23:47:22.267Z,68.30
2022-10-10T23:51:04.547Z,68.40
2022-10-10T23:54:46.399Z,68.40
2022-10-10T23:58:28.295Z,67.90
